createdAt,value
2022-12-25T00:01:51.391Z,69.08
2022-12-25T00:04:55.779Z,67.68
2022-12-25T00:08:00.337Z,67.31
2022-12-25T00:11:11.127Z,67.83
2022-12-25T00:14:15.711Z,69.45
2022-12-25T00:17:20.200Z,68.71
2022-12-25T00:20:24.760Z,67.02
2022-12-25T00:23:29.951Z,68.05
2022-12-25T00:26:34.576Z,66.58
2022-12-25T00:29:39.141Z,66.01
2022-12-25T00:32:43.570Z,64.69
2022-12-25T00:35:59.854Z,65.48
2022-12-25T00:39:05.272Z,63.63
2022-12-25T00:42:22.679Z,61.13
2022-12-25T00:45:27.495Z,62.74
2022-12-25T00:48:33.606Z,60.98
2022-12-25T00:51:38.866Z,59.75
2022-12-25T00:54:43.337Z,59.33
2022-12-25T00:57:47.588Z,59.25
2022-12-25T01:00:52.151Z,58.07
2022-12-25T01:03:56.995Z,58.34
2022-12-25T01:07:01.541Z,54.25
2022-12-25T01:10:25.266Z,57.87
2022-12-25T01:13:35.411Z,54.87
2022-12-25T01:16:40.378Z,59.90
2022-12-25T01:19:44.827Z,57.63
2022-12-25T01:22:49.415Z,59.07
2022-12-25T01:25:53.880Z,58.73
2022-12-25T01:28:58.351Z,58.97
2022-12-25T01:32:03.712Z,60.42
2022-12-25T01:35:08.693Z,60.86
2022-12-25T01:38:14.061Z,62.04
2022-12-25T01:41:21.490Z,60.96
2022-12-25T01:44:39.063Z,59.51
2022-12-25T01:47:46.230Z,59.99
2022-12-25T01:50:59.036Z,60.32
2022-12-25T01:54:09.709Z,58.70
2022-12-25T01:57:20.398Z,57.85
2022-12-25T02:00:24.910Z,57.81
2022-12-25T02:03:29.605Z,59.74
2022-12-25T02:06:36.645Z,58.79
2022-12-25T02:09:41.439Z,57.49
2022-12-25T02:12:47.024Z,58.61
2022-12-25T02:16:06.031Z,56.09
2022-12-25T02:19:33.663Z,57.09
2022-12-25T02:22:56.443Z,55.24
2022-12-25T02:26:25.427Z,57.75
2022-12-25T02:30:02.044Z,60.03
2022-12-25T02:33:37.712Z,56.75
2022-12-25T02:36:42.198Z,58.59
2022-12-25T02:39:58.877Z,56.26
2022-12-25T02:43:24.270Z,58.73
2022-12-25T02:46:51.595Z,57.81
2022-12-25T02:50:16.318Z,55.60
2022-12-25T02:53:41.316Z,58.94
2022-12-25T02:57:07.710Z,57.09
2022-12-25T03:00:33.201Z,57.29
2022-12-25T03:04:00.630Z,56.94
2022-12-25T03:07:07.894Z,57.12
2022-12-25T03:10:34.708Z,58.28
2022-12-25T03:13:44.437Z,57.84
2022-12-25T03:16:56.142Z,58.33
2022-12-25T03:20:20.111Z,59.80
2022-12-25T03:23:52.743Z,59.14
2022-12-25T03:26:59.088Z,58.11
2022-12-25T03:30:23.695Z,60.01
2022-12-25T03:34:11.136Z,58.64
2022-12-25T03:37:44.997Z,58.52
2022-12-25T03:41:42.907Z,59.21
2022-12-25T03:45:24.823Z,60.12
2022-12-25T03:48:50.416Z,59.39
2022-12-25T03:52:17.140Z,60.22
2022-12-25T03:55:41.945Z,60.85
2022-12-25T03:59:23.214Z,60.08
2022-12-25T04:02:46.511Z,59.05
2022-12-25T04:06:09.558Z,57.13
2022-12-25T04:09:32.516Z,59.54
2022-12-25T04:12:55.425Z,60.77
2022-12-25T04:16:18.464Z,60.22
2022-12-25T04:19:41.068Z,61.65
2022-12-25T04:23:04.252Z,61.73
2022-12-25T04:26:27.143Z,61.51
2022-12-25T04:29:49.961Z,62.23
2022-12-25T04:33:18.274Z,59.02
2022-12-25T04:36:22.950Z,61.24
2022-12-25T04:39:27.295Z,60.53
2022-12-25T04:42:32.115Z,61.91
2022-12-25T04:45:36.457Z,60.80
2022-12-25T04:48:40.909Z,61.12
2022-12-25T04:51:45.456Z,61.04
2022-12-25T04:54:49.962Z,60.78
2022-12-25T04:57:54.523Z,60.37
2022-12-25T05:01:04.486Z,59.17
2022-12-25T05:04:08.962Z,59.31
2022-12-25T05:07:13.535Z,61.27
2022-12-25T05:10:18.129Z,59.78
2022-12-25T05:13:22.719Z,59.39
2022-12-25T05:16:27.463Z,58.86
2022-12-25T05:19:32.593Z,58.84
2022-12-25T05:22:36.908Z,59.59
2022-12-25T05:25:41.874Z,61.17
2022-12-25T05:28:47.068Z,58.27
2022-12-25T05:31:51.669Z,59.91
2022-12-25T05:34:56.478Z,58.99
2022-12-25T05:38:01.108Z,59.99
2022-12-25T05:41:06.182Z,60.67
2022-12-25T05:44:10.856Z,62.20
2022-12-25T05:47:15.481Z,60.93
2022-12-25T05:50:20.033Z,60.37
2022-12-25T05:53:24.628Z,59.04
2022-12-25T05:56:29.236Z,61.32
2022-12-25T05:59:34.753Z,61.97
2022-12-25T06:02:39.755Z,62.53
2022-12-25T06:05:44.412Z,61.92
2022-12-25T06:08:49.269Z,61.99
2022-12-25T06:11:53.846Z,60.84
2022-12-25T06:14:58.499Z,61.56
2022-12-25T06:18:03.480Z,62.00
2022-12-25T06:21:14.197Z,62.35
2022-12-25T06:24:21.562Z,62.36
2022-12-25T06:27:27.169Z,62.68
2022-12-25T06:30:32.769Z,62.16
2022-12-25T06:33:37.899Z,61.45
2022-12-25T06:36:42.412Z,62.93
2022-12-25T06:39:48.033Z,62.67
2022-12-25T06:42:53.752Z,62.39
2022-12-25T06:45:58.225Z,63.26
2022-12-25T06:49:03.077Z,62.65
2022-12-25T06:52:07.671Z,63.51
2022-12-25T06:55:12.164Z,62.98
2022-12-25T06:58:16.660Z,62.48
2022-12-25T07:01:22.972Z,64.12
2022-12-25T07:04:43.076Z,63.82
2022-12-25T07:07:47.569Z,64.15
2022-12-25T07:10:52.735Z,64.65
2022-12-25T07:13:57.173Z,63.33
2022-12-25T07:17:01.770Z,63.99
2022-12-25T07:20:07.776Z,64.33
2022-12-25T07:23:12.254Z,64.81
2022-12-25T07:26:18.270Z,64.29
2022-12-25T07:29:23.023Z,63.91
2022-12-25T07:32:27.599Z,64.45
2022-12-25T07:35:32.133Z,66.10
2022-12-25T07:38:36.824Z,65.75
2022-12-25T07:41:42.739Z,65.63
2022-12-25T07:44:53.236Z,65.94
2022-12-25T07:48:02.707Z,66.17
2022-12-25T07:51:13.801Z,67.09
2022-12-25T07:54:18.544Z,66.66
2022-12-25T07:57:22.990Z,67.18
2022-12-25T08:00:30.695Z,66.84
2022-12-25T08:03:36.708Z,67.34
2022-12-25T08:06:41.413Z,66.83
2022-12-25T08:09:45.866Z,67.47
2022-12-25T08:12:50.469Z,66.96
2022-12-25T08:16:02.475Z,67.71
2022-12-25T08:19:06.847Z,66.40
2022-12-25T08:22:11.309Z,66.10
2022-12-25T08:25:16.747Z,67.26
2022-12-25T08:28:21.046Z,67.08
2022-12-25T08:31:29.354Z,66.84
2022-12-25T08:34:33.932Z,67.62
2022-12-25T08:37:38.542Z,66.96
2022-12-25T08:40:43.332Z,66.94
2022-12-25T08:43:47.723Z,67.21
2022-12-25T08:46:52.265Z,66.35
2022-12-25T08:49:56.685Z,66.97
2022-12-25T08:53:01.697Z,67.01
2022-12-25T08:56:08.522Z,67.35
2022-12-25T08:59:13.077Z,67.76
2022-12-25T09:02:19.230Z,67.17
2022-12-25T09:05:26.032Z,67.31
2022-12-25T09:08:32.265Z,66.96
2022-12-25T09:11:36.844Z,66.40
2022-12-25T09:14:41.385Z,66.82
2022-12-25T09:17:46.380Z,65.98
2022-12-25T09:21:16.785Z,66.37
2022-12-25T09:24:21.794Z,66.92
2022-12-25T09:27:26.508Z,66.86
2022-12-25T09:30:31.065Z,66.66
2022-12-25T09:33:36.472Z,66.62
2022-12-25T09:36:40.970Z,67.05
2022-12-25T09:39:46.568Z,68.23
2022-12-25T09:42:54.670Z,68.67
2022-12-25T09:46:03.559Z,67.85
2022-12-25T09:49:17.513Z,67.42
2022-12-25T09:52:29.769Z,67.57
2022-12-25T09:55:41.980Z,67.58
2022-12-25T09:58:46.901Z,68.24
2022-12-25T10:02:38.058Z,68.65
2022-12-25T10:05:56.346Z,67.68
2022-12-25T10:09:17.479Z,68.36
2022-12-25T10:12:41.627Z,68.86
2022-12-25T10:16:10.368Z,68.76
2022-12-25T10:19:41.672Z,67.70
2022-12-25T10:22:52.834Z,66.20
2022-12-25T10:25:58.117Z,66.72
2022-12-25T10:29:11.433Z,67.88
2022-12-25T10:32:16.239Z,68.78
2022-12-25T10:35:23.769Z,67.73
2022-12-25T10:38:28.047Z,67.02
2022-12-25T10:42:04.433Z,67.03
2022-12-25T10:45:11.089Z,67.57
2022-12-25T10:48:30.687Z,68.11
2022-12-25T10:51:37.040Z,66.35
2022-12-25T10:54:41.709Z,65.57
2022-12-25T10:57:47.597Z,66.55
2022-12-25T11:00:59.905Z,64.81
2022-12-25T11:04:04.461Z,66.92
2022-12-25T11:07:15.713Z,67.16
2022-12-25T11:10:25.676Z,67.62
2022-12-25T11:13:32.109Z,66.77
2022-12-25T11:16:42.349Z,66.33
2022-12-25T11:19:54.785Z,65.66
2022-12-25T11:22:59.261Z,64.93
2022-12-25T11:26:09.286Z,65.28
2022-12-25T11:29:32.749Z,64.26
2022-12-25T11:32:48.930Z,65.61
2022-12-25T11:36:00.501Z,66.69
2022-12-25T11:39:26.330Z,67.74
2022-12-25T11:42:41.230Z,68.62
2022-12-25T11:46:07.095Z,69.33
2022-12-25T11:49:20.210Z,68.85
2022-12-25T11:52:29.605Z,68.44
2022-12-25T11:55:47.220Z,68.85
2022-12-25T11:58:54.936Z,68.55
2022-12-25T12:02:19.643Z,68.22
2022-12-25T12:05:44.103Z,68.26
2022-12-25T12:08:56.607Z,67.00
2022-12-25T12:12:30.348Z,66.01
2022-12-25T12:15:45.119Z,66.56
2022-12-25T12:18:50.804Z,66.50
2022-12-25T12:21:59.602Z,65.91
2022-12-25T12:25:09.363Z,65.00
2022-12-25T12:28:22.649Z,65.31
2022-12-25T12:31:37.805Z,65.66
2022-12-25T12:34:50.972Z,65.00
2022-12-25T12:37:58.837Z,64.74
2022-12-25T12:41:09.220Z,64.95
2022-12-25T12:44:16.931Z,66.26
2022-12-25T12:47:42.635Z,65.08
2022-12-25T12:50:48.463Z,65.21
2022-12-25T12:54:05.035Z,64.77
2022-12-25T12:57:26.147Z,65.21
2022-12-25T13:00:49.708Z,65.76
2022-12-25T13:04:07.142Z,66.02
2022-12-25T13:07:33.153Z,65.87
2022-12-25T13:10:47.069Z,64.72
2022-12-25T13:13:53.837Z,65.55
2022-12-25T13:16:58.378Z,65.65
2022-12-25T13:20:03.244Z,65.57
2022-12-25T13:23:38.358Z,64.76
2022-12-25T13:26:42.964Z,64.63
2022-12-25T13:29:47.543Z,65.68
2022-12-25T13:32:52.343Z,65.79
2022-12-25T13:35:57.140Z,65.30
2022-12-25T13:39:02.230Z,65.76
2022-12-25T13:42:10.761Z,66.59
2022-12-25T13:45:21.844Z,67.48
2022-12-25T13:48:26.865Z,67.88
2022-12-25T13:51:31.633Z,68.99
2022-12-25T13:54:36.487Z,68.88
2022-12-25T13:58:08.446Z,69.95
2022-12-25T14:01:17.990Z,70.68
2022-12-25T14:04:25.547Z,70.91
2022-12-25T14:07:30.760Z,71.29
2022-12-25T14:10:39.373Z,70.09
2022-12-25T14:13:46.621Z,69.34
2022-12-25T14:16:54.468Z,68.09
2022-12-25T14:20:07.838Z,67.80
2022-12-25T14:23:17.292Z,66.82
2022-12-25T14:26:25.064Z,67.30
2022-12-25T14:29:38.831Z,67.95
2022-12-25T14:32:47.317Z,67.85
2022-12-25T14:35:53.621Z,67.32
2022-12-25T14:39:07.504Z,68.72
2022-12-25T14:42:43.070Z,68.72
2022-12-25T14:45:56.894Z,68.58
2022-12-25T14:49:07.965Z,68.87
2022-12-25T14:52:20.020Z,69.67
2022-12-25T14:55:28.423Z,69.41
2022-12-25T14:58:42.997Z,68.68
2022-12-25T15:01:53.511Z,67.84
2022-12-25T15:04:58.169Z,67.96
2022-12-25T15:08:14.667Z,67.92
2022-12-25T15:11:19.107Z,68.03
2022-12-25T15:14:24.976Z,67.71
2022-12-25T15:17:38.954Z,68.32
2022-12-25T15:20:43.628Z,68.62
2022-12-25T15:23:48.694Z,67.93
2022-12-25T15:26:56.188Z,68.58
2022-12-25T15:30:09.736Z,67.66
2022-12-25T15:33:17.596Z,67.49
2022-12-25T15:36:23.219Z,65.94
2022-12-25T15:39:27.839Z,66.52
2022-12-25T15:42:33.201Z,66.42
2022-12-25T15:45:39.054Z,66.13
2022-12-25T15:48:43.546Z,66.55
2022-12-25T15:51:48.358Z,67.76
2022-12-25T15:54:55.085Z,66.88
2022-12-25T15:58:00.032Z,67.03
2022-12-25T16:01:05.068Z,68.19
2022-12-25T16:04:09.809Z,69.07
2022-12-25T16:07:20.471Z,68.31
2022-12-25T16:10:25.151Z,67.28
2022-12-25T16:13:29.613Z,67.51
2022-12-25T16:16:34.675Z,67.57
2022-12-25T16:19:39.420Z,67.49
2022-12-25T16:22:44.360Z,68.47
2022-12-25T16:25:49.325Z,68.56
2022-12-25T16:28:53.812Z,68.03
2022-12-25T16:31:58.307Z,67.33
2022-12-25T16:35:03.071Z,66.65
2022-12-25T16:38:07.638Z,67.40
2022-12-25T16:41:14.750Z,67.84
2022-12-25T16:44:19.360Z,67.91
2022-12-25T16:47:24.074Z,68.41
2022-12-25T16:50:28.467Z,69.67
2022-12-25T16:53:33.436Z,69.96
2022-12-25T16:56:38.114Z,70.00
2022-12-25T16:59:42.792Z,69.95
2022-12-25T17:02:47.530Z,70.40
2022-12-25T17:05:52.128Z,71.11
2022-12-25T17:08:59.992Z,70.73
2022-12-25T17:12:06.009Z,71.12
2022-12-25T17:15:11.032Z,70.33
2022-12-25T17:18:15.506Z,70.47
2022-12-25T17:21:19.875Z,70.69
2022-12-25T17:24:24.499Z,69.77
2022-12-25T17:27:29.064Z,69.54
2022-12-25T17:30:34.287Z,69.08
2022-12-25T17:33:44.001Z,69.43
2022-12-25T17:36:49.198Z,69.98
2022-12-25T17:39:53.559Z,69.71
2022-12-25T17:42:58.190Z,69.25
2022-12-25T17:46:08.043Z,69.87
2022-12-25T17:49:16.914Z,69.53
2022-12-25T17:52:21.273Z,70.09
2022-12-25T17:55:25.807Z,70.20
2022-12-25T17:58:30.549Z,70.77
2022-12-25T18:01:36.206Z,70.65
2022-12-25T18:04:41.038Z,70.27
2022-12-25T18:07:46.035Z,68.07
2022-12-25T18:10:50.573Z,68.38
2022-12-25T18:13:55.861Z,67.87
2022-12-25T18:17:00.514Z,68.22
2022-12-25T18:20:07.168Z,67.98
2022-12-25T18:23:12.151Z,68.37
2022-12-25T18:26:16.805Z,67.71
2022-12-25T18:29:21.475Z,67.92
2022-12-25T18:32:28.213Z,67.96
2022-12-25T18:35:33.024Z,68.76
2022-12-25T18:38:37.746Z,68.75
2022-12-25T18:42:02.360Z,68.43
2022-12-25T18:45:13.007Z,68.56
2022-12-25T18:48:17.748Z,69.18
2022-12-25T18:51:22.557Z,69.69
2022-12-25T18:54:27.123Z,70.03
2022-12-25T18:57:33.475Z,69.52
2022-12-25T19:00:37.726Z,69.40
2022-12-25T19:03:42.543Z,68.68
2022-12-25T19:06:47.250Z,68.16
2022-12-25T19:09:52.503Z,68.58
2022-12-25T19:12:57.093Z,68.47
2022-12-25T19:16:02.860Z,69.18
2022-12-25T19:19:07.459Z,69.71
2022-12-25T19:22:12.565Z,68.24
2022-12-25T19:25:19.148Z,68.52
2022-12-25T19:28:25.837Z,68.07
2022-12-25T19:31:30.425Z,68.45
2022-12-25T19:34:34.991Z,69.04
2022-12-25T19:37:39.432Z,69.14
2022-12-25T19:41:01.067Z,68.94
2022-12-25T19:44:08.253Z,68.64
2022-12-25T19:47:13.040Z,69.58
2022-12-25T19:50:17.638Z,70.45
2022-12-25T19:53:24.612Z,70.91
2022-12-25T19:56:30.335Z,69.87
2022-12-25T19:59:35.075Z,70.61
2022-12-25T20:02:39.588Z,69.95
2022-12-25T20:05:51.802Z,70.08
2022-12-25T20:08:58.919Z,71.03
2022-12-25T20:12:03.559Z,70.98
2022-12-25T20:15:08.864Z,70.54
2022-12-25T20:18:13.408Z,70.89
2022-12-25T20:21:20.672Z,70.32
2022-12-25T20:24:25.876Z,71.19
2022-12-25T20:27:30.416Z,70.38
2022-12-25T20:30:34.793Z,70.31
2022-12-25T20:33:39.511Z,70.04
2022-12-25T20:36:46.077Z,70.65
2022-12-25T20:39:50.693Z,70.13
2022-12-25T20:42:55.225Z,70.05
2022-12-25T20:46:00.312Z,70.30
2022-12-25T20:49:05.506Z,68.89
2022-12-25T20:52:10.169Z,69.47
2022-12-25T20:55:15.029Z,68.98
2022-12-25T20:58:19.573Z,68.99
2022-12-25T21:01:24.777Z,69.75
2022-12-25T21:04:29.387Z,68.05
2022-12-25T21:07:34.185Z,69.04
2022-12-25T21:10:38.528Z,69.08
2022-12-25T21:13:46.334Z,69.50
2022-12-25T21:16:51.903Z,69.44
2022-12-25T21:19:56.279Z,69.73
2022-12-25T21:23:00.767Z,70.09
2022-12-25T21:26:33.783Z,69.87
2022-12-25T21:29:38.359Z,69.63
2022-12-25T21:33:01.300Z,69.62
2022-12-25T21:36:12.026Z,70.32
2022-12-25T21:39:17.073Z,70.88
2022-12-25T21:42:21.681Z,70.96
2022-12-25T21:45:26.333Z,71.15
2022-12-25T21:48:31.426Z,70.78
2022-12-25T21:51:54.301Z,70.15
2022-12-25T21:54:58.725Z,71.04
2022-12-25T21:58:03.988Z,71.01
2022-12-25T22:01:08.697Z,71.35
2022-12-25T22:04:14.681Z,71.38
2022-12-25T22:07:19.273Z,70.91
2022-12-25T22:10:23.796Z,70.10
2022-12-25T22:13:46.407Z,69.81
2022-12-25T22:17:09.591Z,70.10
2022-12-25T22:20:20.473Z,69.80
2022-12-25T22:23:25.148Z,70.42
2022-12-25T22:26:29.806Z,69.54
2022-12-25T22:29:34.923Z,70.10
2022-12-25T22:32:39.508Z,70.22
2022-12-25T22:35:43.897Z,69.88
2022-12-25T22:38:48.218Z,70.55
2022-12-25T22:41:52.655Z,70.76
2022-12-25T22:44:57.185Z,70.43
2022-12-25T22:48:01.693Z,69.80
2022-12-25T22:51:06.320Z,70.03
2022-12-25T22:54:13.957Z,70.03
2022-12-25T22:57:18.206Z,70.28
2022-12-25T23:00:24.113Z,69.31
2022-12-25T23:03:29.041Z,69.68
2022-12-25T23:06:33.669Z,69.04
2022-12-25T23:09:38.271Z,68.68
2022-12-25T23:13:01.346Z,68.15
2022-12-25T23:16:06.926Z,66.97
2022-12-25T23:19:31.558Z,66.97
2022-12-25T23:22:54.837Z,66.26
2022-12-25T23:26:11.428Z,66.04
2022-12-25T23:29:34.194Z,66.85
2022-12-25T23:32:39.418Z,64.86
2022-12-25T23:35:43.950Z,63.99
2022-12-25T23:38:48.511Z,63.88
2022-12-25T23:41:53.091Z,64.62
2022-12-25T23:44:57.603Z,65.78
2022-12-25T23:48:02.295Z,64.91
2022-12-25T23:51:10.252Z,64.34
2022-12-25T23:54:18.523Z,63.70
2022-12-25T23:57:22.970Z,63.63
